Observations for CAMBRIDGE, United Kingdom (EGSC)

EGSC 191650Z 09006KT CAVOK 21/07 Q1029  
EGSC 191620Z 09005KT CAVOK 23/07 Q1029  
EGSC 191550Z 07005KT CAVOK 23/06 Q1028  
EGSC 191520Z 06006KT 020V110 CAVOK 22/06 Q1028  
EGSC 191450Z 05007KT 020V090 CAVOK 23/05 Q1029  
EGSC 191420Z 08007KT CAVOK 23/05 Q1029  
EGSC 191350Z 08006KT CAVOK 23/06 Q1029  
EGSC 191320Z 09005KT 040V160 CAVOK 23/07 Q1029  
EGSC 191250Z 10006KT 030V190 CAVOK 22/07 Q1029  
EGSC 191220Z 09007KT 050V150 CAVOK 22/06 Q1029  
EGSC 191150Z 09008KT CAVOK 22/06 Q1029  
EGSC 191120Z 06006KT CAVOK 21/07 Q1029  
EGSC 191050Z 02007KT 340V060 CAVOK 20/08 Q1029  
EGSC 191020Z 02006KT 350V050 9000 NSC 19/08 Q1029   
EGSC 190950Z 02006KT 340V050 8000 NSC 17/08 Q1029   
EGSC 190920Z 02004KT 330V070 8000 NSC 15/09 Q1029   
EGSC 190850Z 02005KT 8000 NSC 14/08 Q1029   
EGSC 190820Z 03004KT 350V060 7000 NSC 13/08 Q1029   
EGSC 190750Z 03005KT 360V060 7000 NSC 11/07 Q1029   
EGSC 190720Z 03006KT 7000 NSC 10/06 Q1029   
EGSC 190650Z VRB03KT 7000 NSC 08/06 Q1029